createdAt,value
2023-03-17T00:00:47.960Z,17.20
2023-03-17T00:03:25.957Z,27.00
2023-03-17T00:05:55.358Z,23.70
2023-03-17T00:08:27.384Z,30.20
2023-03-17T00:10:56.329Z,22.50
2023-03-17T00:13:25.166Z,30.60
2023-03-17T00:15:57.187Z,40.30
2023-03-17T00:18:25.306Z,37.40
2023-03-17T00:20:53.689Z,42.90
2023-03-17T00:23:24.526Z,28.80
2023-03-17T00:25:54.340Z,34.70
2023-03-17T00:28:25.776Z,40.90
2023-03-17T00:30:59.505Z,39.80
2023-03-17T00:33:30.107Z,35.50
2023-03-17T00:35:59.520Z,46.40
2023-03-17T00:38:28.079Z,40.90
2023-03-17T00:40:58.858Z,34.20
2023-03-17T00:43:29.738Z,29.00
2023-03-17T00:45:58.631Z,24.00
2023-03-17T00:48:28.460Z,35.50
2023-03-17T00:50:56.568Z,35.80
2023-03-17T00:53:24.545Z,30.80
2023-03-17T00:55:52.607Z,25.30
2023-03-17T00:58:30.549Z,46.00
2023-03-17T01:00:59.870Z,35.80
2023-03-17T01:03:29.009Z,37.00
2023-03-17T01:05:58.017Z,38.70
2023-03-17T01:08:28.773Z,21.10
2023-03-17T01:10:57.255Z,24.20
2023-03-17T01:13:25.597Z,22.90
2023-03-17T01:15:56.560Z,22.30
2023-03-17T01:18:25.872Z,26.50
2023-03-17T01:20:54.053Z,21.00
2023-03-17T01:23:22.234Z,23.20
2023-03-17T01:25:50.903Z,23.00
2023-03-17T01:28:20.728Z,22.40
2023-03-17T01:30:50.097Z,25.30
2023-03-17T01:33:19.187Z,26.70
2023-03-17T01:35:47.387Z,26.20
2023-03-17T01:38:15.673Z,26.80
2023-03-17T01:40:48.111Z,26.70
2023-03-17T01:43:30.893Z,30.70
2023-03-17T01:46:25.324Z,31.20
2023-03-17T01:49:12.867Z,29.80
2023-03-17T01:52:03.021Z,25.30
2023-03-17T01:54:44.944Z,26.30
2023-03-17T01:57:16.969Z,29.40
2023-03-17T01:59:55.693Z,27.20
2023-03-17T02:04:54.139Z,26.70
2023-03-17T02:07:23.986Z,33.20
2023-03-17T02:09:53.733Z,43.60
2023-03-17T02:12:24.742Z,33.30
2023-03-17T02:14:53.145Z,31.90
2023-03-17T02:17:23.776Z,24.70
2023-03-17T02:19:52.279Z,33.20
2023-03-17T02:22:20.858Z,30.50
2023-03-17T02:24:53.438Z,12.90
2023-03-17T02:27:26.367Z,25.20
2023-03-17T02:29:54.778Z,17.10
2023-03-17T02:32:22.810Z,19.80
2023-03-17T02:34:51.067Z,25.00
2023-03-17T02:39:48.334Z,16.50
2023-03-17T02:42:17.117Z,23.10
2023-03-17T02:47:13.704Z,24.90
2023-03-17T02:49:42.884Z,23.20
2023-03-17T02:52:11.040Z,20.10
2023-03-17T02:54:39.472Z,17.60
2023-03-17T02:57:11.289Z,25.50
2023-03-17T02:59:39.393Z,23.70
2023-03-17T03:02:07.499Z,30.80
2023-03-17T03:04:36.067Z,30.80
2023-03-17T03:07:04.552Z,31.90
2023-03-17T03:09:32.516Z,23.90
2023-03-17T03:12:00.637Z,22.00
2023-03-17T03:14:28.769Z,26.80
2023-03-17T03:16:56.876Z,20.90
2023-03-17T03:19:25.020Z,43.80
2023-03-17T03:21:53.293Z,26.70
2023-03-17T03:24:21.650Z,29.40
2023-03-17T03:26:49.689Z,22.60
2023-03-17T03:29:17.950Z,32.60
2023-03-17T03:31:48.231Z,22.40
2023-03-17T03:34:16.677Z,13.20
2023-03-17T03:36:44.784Z,34.30
2023-03-17T03:39:14.535Z,25.10
2023-03-17T03:41:42.993Z,19.20
2023-03-17T03:44:11.405Z,9.40
2023-03-17T03:46:39.629Z,19.20
2023-03-17T03:49:07.917Z,16.50
2023-03-17T03:51:36.760Z,23.10
2023-03-17T03:54:04.908Z,15.70
2023-03-17T03:56:33.484Z,20.50
2023-03-17T03:59:01.708Z,28.30
2023-03-17T04:01:29.779Z,24.20
2023-03-17T04:03:57.845Z,22.10
2023-03-17T04:06:26.071Z,40.80
2023-03-17T04:08:55.962Z,36.80
2023-03-17T04:11:25.232Z,38.10
2023-03-17T04:13:53.436Z,45.60
2023-03-17T04:16:21.591Z,37.10
2023-03-17T04:18:49.934Z,21.20
2023-03-17T04:21:19.102Z,34.80
2023-03-17T04:23:47.361Z,23.70
2023-03-17T04:26:15.337Z,16.60
2023-03-17T04:28:43.536Z,27.30
2023-03-17T04:31:12.537Z,17.20
2023-03-17T04:33:40.884Z,39.70
2023-03-17T04:36:17.434Z,38.10
2023-03-17T04:38:45.945Z,46.90
2023-03-17T04:41:14.727Z,45.50
2023-03-17T04:43:42.812Z,46.60
2023-03-17T04:46:11.033Z,50.10
2023-03-17T04:48:39.774Z,33.90
2023-03-17T04:51:09.789Z,24.70
2023-03-17T04:53:39.235Z,35.90
2023-03-17T04:56:07.490Z,21.10
2023-03-17T04:58:36.013Z,29.00
2023-03-17T05:01:05.347Z,20.90
2023-03-17T05:03:33.462Z,30.90
2023-03-17T05:06:03.049Z,34.80
2023-03-17T05:08:31.282Z,19.50
2023-03-17T05:10:59.385Z,22.20
2023-03-17T05:13:27.666Z,27.50
2023-03-17T05:15:56.762Z,20.00
2023-03-17T05:18:25.699Z,29.70
2023-03-17T05:20:54.051Z,34.10
2023-03-17T05:23:23.058Z,69.40
2023-03-17T05:25:51.251Z,43.10
2023-03-17T05:28:22.790Z,76.30
2023-03-17T05:30:51.235Z,61.80
2023-03-17T05:33:20.394Z,48.60
2023-03-17T05:35:48.720Z,39.80
2023-03-17T05:38:17.401Z,29.70
2023-03-17T05:43:15.009Z,30.10
2023-03-17T05:48:12.483Z,33.60
2023-03-17T05:50:41.906Z,31.10
2023-03-17T05:53:10.795Z,43.60
2023-03-17T05:55:39.009Z,42.30
2023-03-17T05:58:07.975Z,63.50
2023-03-17T06:00:36.800Z,58.50
2023-03-17T06:05:34.180Z,44.40
2023-03-17T06:08:02.460Z,65.00
2023-03-17T06:10:32.821Z,44.80
2023-03-17T06:13:03.963Z,58.60
2023-03-17T06:15:34.218Z,58.40
2023-03-17T06:18:05.361Z,64.30
2023-03-17T06:20:33.663Z,57.50
2023-03-17T06:23:05.255Z,40.50
2023-03-17T06:25:35.047Z,33.90
2023-03-17T06:28:05.670Z,56.30
2023-03-17T06:30:35.584Z,41.40
2023-03-17T06:33:04.047Z,41.70
2023-03-17T06:35:33.517Z,58.90
2023-03-17T06:38:02.324Z,48.70
2023-03-17T06:40:32.327Z,53.90
2023-03-17T06:43:01.340Z,70.90
2023-03-17T06:45:30.821Z,49.10
2023-03-17T06:47:59.293Z,50.30
2023-03-17T06:50:27.369Z,75.10
2023-03-17T06:52:55.519Z,76.40
2023-03-17T06:55:23.796Z,58.60
2023-03-17T06:57:52.672Z,47.00
2023-03-17T07:02:51.360Z,49.20
2023-03-17T07:07:47.955Z,59.20
2023-03-17T07:10:17.354Z,59.10
2023-03-17T07:12:45.770Z,64.80
2023-03-17T07:15:15.359Z,55.00
2023-03-17T07:17:43.607Z,45.90
2023-03-17T07:20:12.031Z,39.30
2023-03-17T07:22:41.175Z,67.30
2023-03-17T07:25:10.045Z,85.80
2023-03-17T07:27:38.841Z,43.70
2023-03-17T07:30:07.962Z,59.80
2023-03-17T07:32:36.447Z,39.30
2023-03-17T07:35:05.783Z,43.80
2023-03-17T07:37:34.063Z,48.40
2023-03-17T07:40:02.510Z,49.90
2023-03-17T07:42:30.648Z,47.30
2023-03-17T07:44:58.806Z,54.50
2023-03-17T07:47:27.364Z,40.60
2023-03-17T07:49:55.696Z,63.20
2023-03-17T07:52:23.905Z,122.60
2023-03-17T07:54:52.226Z,69.00
2023-03-17T07:57:21.083Z,44.50
2023-03-17T07:59:49.971Z,71.50
2023-03-17T08:07:15.665Z,39.00
2023-03-17T08:09:43.984Z,73.30
2023-03-17T08:12:12.386Z,69.80
2023-03-17T08:14:41.561Z,31.10
2023-03-17T08:17:10.706Z,36.40
2023-03-17T08:19:39.550Z,19.30
2023-03-17T08:22:07.875Z,24.20
2023-03-17T08:24:37.353Z,46.90
2023-03-17T08:27:05.991Z,33.80
2023-03-17T08:29:33.996Z,70.20
2023-03-17T08:32:02.108Z,71.60
2023-03-17T08:34:31.355Z,26.60
2023-03-17T08:37:01.589Z,29.90
2023-03-17T08:39:40.557Z,66.80
2023-03-17T08:42:08.878Z,45.10
2023-03-17T08:44:37.465Z,115.80
2023-03-17T08:47:05.839Z,30.10
2023-03-17T08:49:36.658Z,24.60
2023-03-17T08:52:05.323Z,25.20
2023-03-17T08:54:35.977Z,43.90
2023-03-17T08:57:04.366Z,23.80
2023-03-17T08:59:33.694Z,22.60
2023-03-17T09:02:01.826Z,29.00
2023-03-17T09:04:30.776Z,27.60
2023-03-17T09:07:03.640Z,39.50
2023-03-17T09:09:35.378Z,54.40
2023-03-17T09:12:06.452Z,24.30
2023-03-17T09:14:42.880Z,52.00
2023-03-17T09:17:14.569Z,23.60
2023-03-17T09:19:43.459Z,21.40
2023-03-17T09:22:17.704Z,15.80
2023-03-17T09:24:47.107Z,32.80
2023-03-17T09:27:15.682Z,22.70
2023-03-17T09:29:44.141Z,40.30
2023-03-17T09:32:13.248Z,26.70
2023-03-17T09:34:42.209Z,33.20
2023-03-17T09:37:10.390Z,34.10
2023-03-17T09:39:38.885Z,21.50
2023-03-17T09:42:35.204Z,35.40
2023-03-17T09:45:12.503Z,15.20
2023-03-17T09:48:13.333Z,23.10
2023-03-17T09:51:11.006Z,17.60
2023-03-17T09:54:02.438Z,17.30
2023-03-17T09:56:33.780Z,13.90
2023-03-17T09:59:12.100Z,57.90
2023-03-17T10:01:43.756Z,31.00
2023-03-17T10:04:12.723Z,16.20
2023-03-17T10:06:50.223Z,16.10
2023-03-17T10:09:35.478Z,23.50
2023-03-17T10:12:15.343Z,29.70
2023-03-17T10:14:49.020Z,55.90
2023-03-17T10:17:47.359Z,24.40
2023-03-17T10:20:25.349Z,14.40
2023-03-17T10:23:16.183Z,21.60
2023-03-17T10:25:44.518Z,16.30
2023-03-17T10:28:32.972Z,36.30
2023-03-17T10:31:29.272Z,15.00
2023-03-17T10:34:05.401Z,55.20
2023-03-17T10:36:39.303Z,17.10
2023-03-17T10:39:11.092Z,18.90
2023-03-17T10:41:42.287Z,25.80
2023-03-17T10:44:22.954Z,19.80
2023-03-17T10:46:57.898Z,29.10
2023-03-17T10:49:27.017Z,15.20
2023-03-17T10:51:56.277Z,39.20
2023-03-17T10:54:26.527Z,29.20
2023-03-17T10:57:06.503Z,48.70
2023-03-17T10:59:44.569Z,34.90
2023-03-17T11:02:30.696Z,16.80
2023-03-17T11:05:05.089Z,28.80
2023-03-17T11:07:38.792Z,15.40
2023-03-17T11:10:24.004Z,20.10
2023-03-17T11:13:01.374Z,38.70
2023-03-17T11:15:37.035Z,28.10
2023-03-17T11:18:16.230Z,14.60
2023-03-17T11:20:56.347Z,13.20
2023-03-17T11:23:46.372Z,11.50
2023-03-17T11:26:24.502Z,8.80
2023-03-17T11:29:19.835Z,12.40
2023-03-17T11:32:20.944Z,19.30
2023-03-17T11:35:01.411Z,16.50
2023-03-17T11:37:40.836Z,28.60
2023-03-17T11:40:20.802Z,14.20
2023-03-17T11:43:13.646Z,19.30
2023-03-17T11:45:49.129Z,81.00
2023-03-17T11:48:25.457Z,139.60
2023-03-17T11:51:15.856Z,34.80
2023-03-17T11:53:53.174Z,134.40
2023-03-17T11:56:31.864Z,38.90
2023-03-17T11:59:03.957Z,23.40
2023-03-17T12:01:56.473Z,15.60
2023-03-17T12:04:43.678Z,31.00
2023-03-17T12:07:21.419Z,17.10
2023-03-17T12:09:52.608Z,34.20
2023-03-17T12:12:28.441Z,29.30
2023-03-17T12:14:59.008Z,14.20
2023-03-17T12:17:51.676Z,7.50
2023-03-17T12:20:28.471Z,9.10
2023-03-17T12:23:17.931Z,20.50
2023-03-17T12:26:02.641Z,14.30
2023-03-17T12:28:38.951Z,13.70
2023-03-17T12:31:19.019Z,8.20
2023-03-17T12:33:55.178Z,12.40
2023-03-17T12:36:24.045Z,15.70
2023-03-17T12:41:49.600Z,14.50
2023-03-17T12:44:41.636Z,28.40
2023-03-17T12:47:19.560Z,57.50
2023-03-17T12:50:29.288Z,18.50
2023-03-17T12:53:22.026Z,20.80
2023-03-17T12:55:52.660Z,25.40
2023-03-17T12:58:33.008Z,39.10
2023-03-17T13:01:32.144Z,27.00
2023-03-17T13:04:12.901Z,7.30
2023-03-17T13:06:57.877Z,24.00
2023-03-17T13:09:47.148Z,16.10
2023-03-17T13:12:40.502Z,20.20
2023-03-17T13:15:38.318Z,23.40
2023-03-17T13:18:13.835Z,13.20
2023-03-17T13:20:56.952Z,14.80
2023-03-17T13:23:55.028Z,18.60
2023-03-17T13:27:01.765Z,20.90
2023-03-17T13:29:33.074Z,8.90
2023-03-17T13:32:19.610Z,23.60
2023-03-17T13:35:01.285Z,16.70
2023-03-17T13:37:50.441Z,29.40
2023-03-17T13:40:36.352Z,6.90
2023-03-17T13:43:25.671Z,13.60
2023-03-17T13:46:13.462Z,14.20
2023-03-17T13:48:41.796Z,6.70
2023-03-17T13:51:16.856Z,27.40
2023-03-17T13:53:57.983Z,17.70
2023-03-17T13:56:48.342Z,13.60
2023-03-17T13:59:18.507Z,26.50
2023-03-17T14:02:01.701Z,15.90
2023-03-17T14:04:40.206Z,12.50
2023-03-17T14:07:16.761Z,13.10
2023-03-17T14:09:45.573Z,16.30
2023-03-17T14:12:25.213Z,8.60
2023-03-17T14:15:06.567Z,12.80
2023-03-17T14:18:14.982Z,23.10
2023-03-17T14:20:54.463Z,8.80
2023-03-17T14:23:24.185Z,15.70
2023-03-17T14:25:56.167Z,9.30
2023-03-17T14:28:30.529Z,14.10
2023-03-17T14:31:07.088Z,15.20
2023-03-17T14:33:41.209Z,12.90
2023-03-17T14:36:14.334Z,15.90
2023-03-17T14:38:51.384Z,25.80
2023-03-17T14:41:22.688Z,16.90
2023-03-17T14:43:52.603Z,21.10
2023-03-17T14:46:32.257Z,7.90
2023-03-17T14:49:05.269Z,14.40
2023-03-17T14:51:38.228Z,12.10
2023-03-17T14:54:35.887Z,19.20
2023-03-17T14:57:14.839Z,14.10
2023-03-17T14:59:55.086Z,33.10
2023-03-17T15:02:29.130Z,15.10
2023-03-17T15:05:02.246Z,7.00
2023-03-17T15:07:57.058Z,9.40
2023-03-17T15:10:31.390Z,14.80
2023-03-17T15:13:02.539Z,18.20
2023-03-17T15:15:37.218Z,24.40
2023-03-17T15:18:12.947Z,27.20
2023-03-17T15:20:44.446Z,25.20
2023-03-17T15:23:25.111Z,38.90
2023-03-17T15:25:58.717Z,23.10
2023-03-17T15:28:31.502Z,14.00
2023-03-17T15:31:12.484Z,28.40
2023-03-17T15:33:42.270Z,17.30
2023-03-17T15:36:31.457Z,42.30
2023-03-17T15:39:02.500Z,32.60
2023-03-17T15:41:30.984Z,18.80
2023-03-17T15:43:59.107Z,38.50
2023-03-17T15:46:33.709Z,27.20
2023-03-17T15:49:02.192Z,20.70
2023-03-17T15:51:30.453Z,27.90
2023-03-17T15:53:58.635Z,56.80
2023-03-17T15:56:27.291Z,63.20
2023-03-17T15:58:55.518Z,77.10
2023-03-17T16:01:26.501Z,79.60
2023-03-17T16:03:56.029Z,85.20
2023-03-17T16:06:24.615Z,73.00
2023-03-17T16:08:52.991Z,52.30
2023-03-17T16:11:28.484Z,73.10
2023-03-17T16:14:00.300Z,62.80
2023-03-17T16:16:41.399Z,54.50
2023-03-17T16:19:18.911Z,67.30
2023-03-17T16:21:49.102Z,68.60
2023-03-17T16:24:24.660Z,55.10
2023-03-17T16:26:53.524Z,104.70
2023-03-17T16:29:21.871Z,110.20
2023-03-17T16:31:51.249Z,165.50
2023-03-17T16:34:22.414Z,167.10
2023-03-17T16:36:50.997Z,159.80
2023-03-17T16:39:23.745Z,144.60
2023-03-17T16:41:53.503Z,135.20
2023-03-17T16:44:22.214Z,127.60
2023-03-17T16:49:20.165Z,110.50
2023-03-17T16:51:49.527Z,122.70
2023-03-17T16:54:18.628Z,93.90
2023-03-17T16:56:47.094Z,87.70
2023-03-17T16:59:21.275Z,98.80
2023-03-17T17:01:49.735Z,79.50
2023-03-17T17:04:17.971Z,84.70
2023-03-17T17:06:46.005Z,99.60
2023-03-17T17:09:14.252Z,105.80
2023-03-17T17:11:42.703Z,156.90
2023-03-17T17:14:10.827Z,173.90
2023-03-17T17:16:42.605Z,143.30
2023-03-17T17:19:16.714Z,153.20
2023-03-17T17:21:44.920Z,118.20
2023-03-17T17:24:14.413Z,135.00
2023-03-17T17:26:42.656Z,132.30
2023-03-17T17:29:10.768Z,106.00
2023-03-17T17:31:39.361Z,93.40
2023-03-17T17:34:07.535Z,84.10
2023-03-17T17:36:35.924Z,103.00
2023-03-17T17:39:04.167Z,120.40
2023-03-17T17:41:32.801Z,120.10
2023-03-17T17:44:00.909Z,111.90
2023-03-17T17:46:29.136Z,91.70
2023-03-17T17:48:57.695Z,92.50
2023-03-17T17:51:25.816Z,81.60
2023-03-17T17:53:54.070Z,116.60
2023-03-17T17:56:22.443Z,96.60
2023-03-17T17:58:50.979Z,83.50
2023-03-17T18:01:22.599Z,65.90
2023-03-17T18:03:51.196Z,68.40
2023-03-17T18:06:19.458Z,64.90
2023-03-17T18:08:50.105Z,79.00
2023-03-17T18:11:18.593Z,74.50
2023-03-17T18:16:16.865Z,68.30
2023-03-17T18:18:46.407Z,73.10
2023-03-17T18:21:14.807Z,106.20
2023-03-17T18:23:47.251Z,85.50
2023-03-17T18:26:17.853Z,100.70
2023-03-17T18:28:45.962Z,86.60
2023-03-17T18:31:18.821Z,67.70
2023-03-17T18:33:48.584Z,63.60
2023-03-17T18:36:18.576Z,75.20
2023-03-17T18:38:46.600Z,73.50
2023-03-17T18:41:15.005Z,70.00
2023-03-17T18:43:44.843Z,68.60
2023-03-17T18:46:13.157Z,59.10
2023-03-17T18:48:41.254Z,83.80
2023-03-17T18:51:09.942Z,75.70
2023-03-17T18:53:39.299Z,61.30
2023-03-17T18:56:07.951Z,65.90
2023-03-17T18:58:36.530Z,60.20
2023-03-17T19:01:05.500Z,58.10
2023-03-17T19:03:33.854Z,52.50
2023-03-17T19:06:11.450Z,53.60
2023-03-17T19:08:39.658Z,56.20
2023-03-17T19:11:09.524Z,64.60
2023-03-17T19:13:38.536Z,94.20
2023-03-17T19:16:07.853Z,84.40
2023-03-17T19:18:37.588Z,75.30
2023-03-17T19:21:07.782Z,111.60
2023-03-17T19:23:38.284Z,65.60
2023-03-17T19:26:06.485Z,54.70
2023-03-17T19:28:36.840Z,68.60
2023-03-17T19:31:05.360Z,66.30
2023-03-17T19:36:11.685Z,59.20
2023-03-17T19:38:41.166Z,43.10
2023-03-17T19:41:09.435Z,49.80
2023-03-17T19:43:41.172Z,73.00
2023-03-17T19:46:11.980Z,69.80
2023-03-17T19:48:40.896Z,57.20
2023-03-17T19:56:06.768Z,38.40
2023-03-17T19:58:35.041Z,54.90
2023-03-17T20:01:04.799Z,42.80
2023-03-17T20:03:33.827Z,47.20
2023-03-17T20:06:06.135Z,53.50
2023-03-17T20:08:35.875Z,46.90
2023-03-17T20:11:06.123Z,47.30
2023-03-17T20:13:36.178Z,68.40
2023-03-17T20:16:06.049Z,66.80
2023-03-17T20:18:35.097Z,48.90
2023-03-17T20:21:05.886Z,57.40
2023-03-17T20:23:35.546Z,56.80
2023-03-17T20:26:04.233Z,51.00
2023-03-17T20:28:32.729Z,55.20
2023-03-17T20:31:04.622Z,63.90
2023-03-17T20:33:33.604Z,61.60
2023-03-17T20:38:33.500Z,63.30
2023-03-17T20:41:07.563Z,34.20
2023-03-17T20:43:37.572Z,47.50
2023-03-17T20:46:08.941Z,48.30
2023-03-17T20:48:37.561Z,50.50
2023-03-17T20:51:06.587Z,51.50
2023-03-17T20:53:34.841Z,41.80
2023-03-17T20:56:03.116Z,30.60
2023-03-17T20:58:31.139Z,42.30
2023-03-17T21:01:01.886Z,48.70
2023-03-17T21:03:30.078Z,48.00
2023-03-17T21:05:58.121Z,46.00
2023-03-17T21:08:26.156Z,27.50
2023-03-17T21:10:54.222Z,30.70
2023-03-17T21:13:22.308Z,29.20
2023-03-17T21:15:50.561Z,29.00
2023-03-17T21:18:18.863Z,33.90
2023-03-17T21:20:48.417Z,25.50
2023-03-17T21:23:17.100Z,23.20
2023-03-17T21:25:45.508Z,19.00
2023-03-17T21:28:13.840Z,20.80
2023-03-17T21:30:45.059Z,17.20
2023-03-17T21:33:13.733Z,34.10
2023-03-17T21:35:41.858Z,17.70
2023-03-17T21:38:09.957Z,16.70
2023-03-17T21:40:37.988Z,18.10
2023-03-17T21:43:06.404Z,12.30
2023-03-17T21:45:34.879Z,14.80
2023-03-17T21:48:03.202Z,21.30
2023-03-17T21:50:31.454Z,38.60
2023-03-17T21:53:00.002Z,31.60
2023-03-17T21:55:28.053Z,40.90
2023-03-17T21:57:56.107Z,31.60
2023-03-17T22:00:25.726Z,33.20
2023-03-17T22:02:56.124Z,38.60
2023-03-17T22:07:53.327Z,24.60
2023-03-17T22:10:21.605Z,48.30
2023-03-17T22:12:49.635Z,44.80
2023-03-17T22:15:17.784Z,35.30
2023-03-17T22:17:45.959Z,36.60
2023-03-17T22:20:14.450Z,30.70
2023-03-17T22:22:42.480Z,34.10
2023-03-17T22:25:10.576Z,24.40
2023-03-17T22:27:38.619Z,32.30
2023-03-17T22:30:06.983Z,26.80
2023-03-17T22:32:35.183Z,23.60
2023-03-17T22:35:04.471Z,21.60
2023-03-17T22:37:32.749Z,12.60
2023-03-17T22:40:03.220Z,24.60
2023-03-17T22:42:32.282Z,21.60
2023-03-17T22:45:00.471Z,15.40
2023-03-17T22:47:28.466Z,18.50
2023-03-17T22:49:56.527Z,19.40
2023-03-17T22:52:24.645Z,17.00
2023-03-17T22:54:52.656Z,17.00
2023-03-17T22:57:21.604Z,17.40
2023-03-17T22:59:49.733Z,18.10
2023-03-17T23:02:18.729Z,16.50
2023-03-17T23:04:46.887Z,14.10
2023-03-17T23:07:16.554Z,14.40
2023-03-17T23:09:45.511Z,18.90
2023-03-17T23:12:13.797Z,17.90
2023-03-17T23:14:41.954Z,20.00
2023-03-17T23:17:10.023Z,14.10
2023-03-17T23:19:38.036Z,16.20
2023-03-17T23:22:06.146Z,10.60
2023-03-17T23:24:34.210Z,16.60
2023-03-17T23:27:02.525Z,11.50
2023-03-17T23:29:30.528Z,14.60
2023-03-17T23:31:59.577Z,21.90
2023-03-17T23:34:28.524Z,36.30
2023-03-17T23:39:25.586Z,32.00
2023-03-17T23:41:54.516Z,21.50
2023-03-17T23:46:51.491Z,33.80
2023-03-17T23:51:48.387Z,26.10
2023-03-17T23:54:16.653Z,23.80
2023-03-17T23:56:45.352Z,22.60
